Time;durP1;ratioP1;P1;durP2;ratioP2;P2;SDS_P1;SDS_P2;PMS_P1;PMS_P2;Temp;Humidity;BMP_temperature;BMP_pressure;BME280_temperature;BME280_humidity;BME280_pressure;Samples;Min_cycle;Max_cycle;Signal;HPM_P1;HPM_P2
2023/03/17 00:01:50;;;;;;;3.28;1.92;;;6.30;98.70;;;6.22;57.13;100356.59;4993152;28;20030;-77
2023/03/17 00:04:18;;;;;;;4.32;1.85;;;6.30;98.90;;;6.32;56.59;100354.38;5007939;28;20030;-77
2023/03/17 00:06:44;;;;;;;;;;;6.30;98.90;;;6.28;56.85;100350.38;5002726;28;20433;-77
2023/03/17 00:09:13;;;;;;;4.57;1.70;;;6.40;98.80;;;6.25;57.00;100342.66;5011717;28;20351;-77
2023/03/17 00:11:41;;;;;;;3.50;1.85;;;6.30;98.70;;;6.37;56.21;100343.81;5017112;28;20438;-78
2023/03/17 00:14:08;;;;;;;4.30;1.90;;;6.40;98.30;;;6.30;56.37;100321.22;5005400;28;20072;-77
2023/03/17 00:16:40;;;;;;;3.25;1.60;;;6.40;98.20;;;6.41;56.05;100331.53;5007391;28;20092;-78
2023/03/17 00:19:06;;;;;;;4.38;2.00;;;6.40;97.90;;;6.37;56.16;100338.38;5007470;28;20038;-77
2023/03/17 00:21:34;;;;;;;4.07;1.95;;;6.50;98.10;;;6.41;55.38;100331.53;5006980;28;20045;-77
2023/03/17 00:24:00;;;;;;;;;;;6.50;97.90;;;6.42;55.70;100329.66;5002279;28;20034;-77
2023/03/17 00:26:27;;;;;;;3.63;1.85;;;6.50;98.10;;;6.43;55.47;100328.59;5015819;28;19924;-77
2023/03/17 00:28:53;;;;;;;3.30;1.92;;;6.50;98.00;;;6.51;55.10;100323.06;5008229;28;20041;-78
2023/03/17 00:31:24;;;;;;;2.80;1.90;;;6.50;97.70;;;6.58;54.85;100314.94;4998025;28;20088;-78
2023/03/17 00:33:53;;;;;;;4.28;1.90;;;6.60;97.30;;;6.57;54.95;100316.00;5005836;28;20033;-78
2023/03/17 00:36:27;;;;;;;5.75;2.03;;;6.60;97.40;;;6.62;54.98;100308.09;5008998;28;20042;-78
2023/03/17 00:38:54;;;;;;;4.30;1.90;;;6.60;97.60;;;6.54;54.96;100311.81;5014282;28;20035;-78
2023/03/17 00:41:21;;;;;;;4.75;2.05;;;6.60;97.60;;;6.59;55.00;100292.22;5000666;28;20043;-78
2023/03/17 00:43:47;;;;;;;5.13;1.83;;;6.70;97.30;;;6.72;54.66;100299.59;4998918;28;20389;-79
2023/03/17 00:46:34;;;;;;;4.72;2.20;;;6.80;97.20;;;6.70;55.04;100310.66;5001720;28;20030;-78
2023/03/17 00:49:14;;;;;;;3.53;1.92;;;6.80;97.40;;;6.79;54.05;100292.38;5008295;28;20041;-77
2023/03/17 00:51:40;;;;;;;4.63;2.35;;;6.80;96.60;;;6.85;54.12;100315.09;5008324;28;20429;-77
2023/03/17 00:54:08;;;;;;;5.75;2.25;;;6.80;96.90;;;6.87;53.79;100307.59;5000929;28;20053;-79
2023/03/17 00:56:34;;;;;;;4.72;2.38;;;6.80;96.40;;;6.88;54.01;100295.72;4992611;28;20042;-79
2023/03/17 00:59:00;;;;;;;4.20;2.25;;;6.90;96.70;;;6.79;55.17;100318.63;4995644;28;20113;-77
2023/03/17 01:01:26;;;;;;;4.50;2.28;;;6.80;97.70;;;6.53;56.10;100322.84;5005516;28;20117;-78
2023/03/17 01:03:52;;;;;;;4.05;2.20;;;6.60;98.20;;;6.31;57.04;100314.75;4996926;28;20118;-77
2023/03/17 01:06:27;;;;;;;4.88;2.35;;;6.40;98.70;;;6.12;56.99;100297.31;5007391;28;20121;-79
2023/03/17 01:08:55;;;;;;;4.10;2.53;;;6.20;99.30;;;6.20;57.07;100310.72;5007461;28;20042;-77
2023/03/17 01:11:21;;;;;;;4.75;2.30;;;6.10;99.10;;;6.11;57.51;100307.34;5000880;28;20026;-78
2023/03/17 01:13:47;;;;;;;4.85;2.50;;;6.10;99.40;;;6.03;58.42;100310.16;4997460;28;20489;-78
2023/03/17 01:16:14;;;;;;;4.75;2.40;;;6.00;99.90;;;5.86;59.03;100293.31;4998245;28;20445;-77
2023/03/17 01:18:40;;;;;;;5.38;2.83;;;5.90;99.90;;;5.96;59.12;100303.81;5004182;28;20030;-78
2023/03/17 01:21:07;;;;;;;5.85;3.10;;;5.90;99.90;;;6.01;59.08;100306.81;5015084;28;20438;-78
2023/03/17 01:23:33;;;;;;;5.95;2.67;;;5.90;99.90;;;5.92;60.18;100306.06;5007093;28;20034;-77
2023/03/17 01:25:58;;;;;;;6.28;2.95;;;5.90;99.90;;;5.94;60.98;100314.03;4984518;28;20380;-78
2023/03/17 01:28:24;;;;;;;5.65;2.72;;;5.70;99.90;;;5.72;61.03;100312.16;4999266;28;20048;-78
2023/03/17 01:30:50;;;;;;;4.35;2.53;;;5.70;99.90;;;5.87;60.67;100327.50;5006252;28;20034;-78
2023/03/17 01:33:16;;;;;;;5.97;2.58;;;5.60;99.90;;;5.98;60.65;100326.13;4998895;28;20087;-78
2023/03/17 01:35:44;;;;;;;5.68;2.92;;;5.60;99.90;;;5.80;62.91;100324.72;5003567;28;20456;-78
2023/03/17 01:38:10;;;;;;;6.07;3.40;;;5.50;99.90;;;5.62;65.26;100341.41;5010116;28;20119;-78
2023/03/17 01:40:45;;;;;;;6.80;2.78;;;5.30;99.90;;;5.48;63.33;100329.59;5012573;28;20050;-79
2023/03/17 01:43:11;;;;;;;7.10;3.15;;;5.30;99.90;;;5.58;62.04;100324.72;4991213;28;20038;-77
2023/03/17 01:46:26;;;;;;;5.10;3.00;;;5.30;99.90;;;5.63;62.26;100320.59;5016414;28;20056;-78
2023/03/17 01:49:18;;;;;;;5.93;3.00;;;5.40;99.90;;;5.66;61.43;100321.03;5002144;28;20034;-77
2023/03/17 01:52:08;;;;;;;5.00;3.10;;;5.40;99.90;;;5.70;61.58;100324.19;5007052;28;20473;-78
2023/03/17 01:54:57;;;;;;;6.55;3.17;;;5.50;99.90;;;5.69;61.24;100320.66;5004643;28;20037;-78
2023/03/17 01:57:31;;;;;;;4.63;2.75;;;5.50;99.90;;;5.59;62.27;100302.03;4998330;28;20133;-78
2023/03/17 02:00:17;;;;;;;5.97;3.22;;;5.50;99.90;;;5.59;62.64;100304.75;4980414;28;20030;-77
2023/03/17 02:02:49;;;;;;;5.22;3.10;;;5.50;99.90;;;5.53;63.44;100294.66;4981227;28;20041;-78
2023/03/17 02:05:21;;;;;;;5.15;2.90;;;5.50;99.90;;;5.52;63.28;100294.88;5005910;28;20048;-78
2023/03/17 02:07:47;;;;;;;5.40;2.90;;;5.50;99.90;;;5.55;62.75;100281.78;5012561;28;20513;-78
2023/03/17 02:10:18;;;;;;;5.00;2.88;;;5.60;99.90;;;5.63;62.86;100283.53;5008787;28;20083;-77
2023/03/17 02:12:48;;;;;;;5.18;2.90;;;5.60;99.90;;;5.66;63.39;100282.31;4999251;28;20026;-78
2023/03/17 02:15:14;;;;;;;6.00;3.00;;;5.60;99.90;;;5.58;62.94;100280.56;4994307;28;20069;-77
2023/03/17 02:17:40;;;;;;;5.90;2.80;;;5.60;99.90;;;5.64;63.43;100287.91;4996989;28;20026;-77
2023/03/17 02:20:28;;;;;;;;;;;5.60;99.90;;;5.73;63.29;100291.34;5006064;28;20134;-77
2023/03/17 02:22:56;;;;;;;6.68;2.97;;;5.60;99.90;;;5.78;63.77;100280.75;5000454;28;19924;-78
2023/03/17 02:25:25;;;;;;;5.63;3.03;;;5.60;99.90;;;5.67;64.30;100270.47;5010713;28;20030;-78
2023/03/17 02:27:58;;;;;;;5.03;2.90;;;5.50;99.90;;;5.57;64.23;100278.91;5001910;28;20038;-77
2023/03/17 02:30:24;;;;;;;7.32;3.15;;;5.40;99.90;;;5.65;63.36;100272.53;5008758;28;20023;-79
2023/03/17 02:32:50;;;;;;;8.05;3.38;;;5.50;99.90;;;5.80;62.03;100273.28;5001915;28;20045;-78
2023/03/17 02:35:18;;;;;;;5.75;3.10;;;5.60;99.90;;;5.97;61.16;100273.88;4995087;28;20532;-78
2023/03/17 02:37:45;;;;;;;7.35;3.30;;;5.80;99.90;;;6.00;60.64;100280.75;5004958;28;20481;-79
2023/03/17 02:40:13;;;;;;;5.90;3.05;;;5.80;99.90;;;6.07;60.54;100284.34;5002689;28;20088;-78
2023/03/17 02:42:40;;;;;;;5.10;3.00;;;5.80;99.90;;;6.09;59.89;100286.88;4999857;28;20058;-78
2023/03/17 02:45:10;;;;;;;5.18;2.63;;;5.80;99.90;;;6.18;59.39;100296.53;4998840;28;20096;-78
2023/03/17 02:47:38;;;;;;;5.93;2.95;;;5.80;99.90;;;6.09;60.00;100298.53;5004098;28;20033;-78
2023/03/17 02:50:05;;;;;;;5.53;3.10;;;5.80;99.90;;;6.02;60.64;100287.69;5003476;28;20076;-78
2023/03/17 02:52:31;;;;;;;5.90;3.10;;;5.70;99.90;;;5.82;61.35;100287.44;4993875;28;20217;-77
2023/03/17 02:54:57;;;;;;;7.38;3.45;;;5.60;99.90;;;5.55;62.14;100276.38;5005136;28;20046;-78
2023/03/17 02:57:23;;;;;;;4.78;2.97;;;5.50;99.90;;;5.41;64.00;100291.63;5016323;28;20049;-78
2023/03/17 02:59:49;;;;;;;6.72;3.47;;;5.30;99.90;;;5.28;65.74;100297.72;5010742;28;20080;-77
2023/03/17 03:02:15;;;;;;;6.82;3.80;;;5.20;99.90;;;5.21;67.39;100304.94;4996898;28;20039;-77
2023/03/17 03:04:42;;;;;;;5.78;3.10;;;5.20;99.90;;;5.40;65.23;100306.19;5002465;28;20091;-78
2023/03/17 03:07:09;;;;;;;7.57;3.13;;;5.30;99.90;;;5.53;64.29;100302.78;4992120;28;20038;-77
2023/03/17 03:09:35;;;;;;;7.25;3.53;;;5.30;99.90;;;5.52;63.93;100287.59;5001673;28;20193;-77
2023/03/17 03:12:02;;;;;;;5.30;2.92;;;5.40;99.90;;;5.61;63.09;100280.19;4997074;28;20088;-77
2023/03/17 03:14:28;;;;;;;6.05;3.08;;;5.40;99.90;;;5.47;65.38;100279.22;5008339;28;20030;-78
2023/03/17 03:16:54;;;;;;;6.05;2.95;;;5.40;99.90;;;5.46;64.77;100278.38;4998190;28;20482;-78
2023/03/17 03:19:19;;;;;;;6.88;3.33;;;5.40;99.90;;;5.45;64.14;100270.44;4988641;28;20059;-78
2023/03/17 03:21:45;;;;;;;6.45;3.20;;;5.40;99.90;;;5.55;64.43;100276.38;5003629;28;20148;-77
2023/03/17 03:24:11;;;;;;;6.90;3.35;;;5.50;99.90;;;5.57;64.98;100274.34;4996418;28;20089;-77
2023/03/17 03:26:37;;;;;;;5.47;3.05;;;5.60;99.90;;;5.69;62.88;100273.81;5002676;28;20413;-77
2023/03/17 03:29:04;;;;;;;7.18;3.30;;;5.60;99.90;;;5.73;62.83;100277.78;5002894;28;20038;-77
2023/03/17 03:31:30;;;;;;;5.68;3.33;;;5.60;99.90;;;5.61;64.04;100278.31;4989773;28;20474;-78
2023/03/17 03:33:56;;;;;;;6.63;3.30;;;5.50;99.90;;;5.46;66.05;100285.66;5002676;28;20092;-77
2023/03/17 03:36:22;;;;;;;6.65;3.33;;;5.50;99.90;;;5.44;65.64;100285.00;4998545;28;20034;-77
2023/03/17 03:38:48;;;;;;;7.13;3.40;;;5.40;99.90;;;5.49;65.40;100279.03;5023164;28;21052;-77
2023/03/17 03:41:14;;;;;;;6.25;3.25;;;5.30;99.90;;;5.50;65.05;100278.00;5001951;28;20033;-77
2023/03/17 03:43:40;;;;;;;5.85;2.90;;;5.20;99.90;;;5.47;64.62;100271.94;5000618;28;20504;-78
2023/03/17 03:46:06;;;;;;;4.85;2.85;;;5.30;99.90;;;5.61;64.36;100278.31;5000789;28;20042;-76
2023/03/17 03:48:31;;;;;;;6.25;3.20;;;5.30;99.90;;;5.64;63.75;100273.56;4997712;28;20034;-77
2023/03/17 03:51:00;;;;;;;7.68;3.70;;;5.40;99.90;;;5.61;63.19;100272.91;5004822;28;20136;-76
2023/03/17 03:53:27;;;;;;;6.90;3.10;;;5.50;99.90;;;5.66;63.39;100276.91;5008413;28;20042;-76
2023/03/17 03:55:54;;;;;;;5.47;3.25;;;5.50;99.90;;;5.60;63.61;100267.69;5006501;28;20041;-77
2023/03/17 03:58:19;;;;;;;7.05;3.55;;;5.50;99.90;;;5.41;64.94;100269.97;4997065;28;20034;-76
2023/03/17 04:00:46;;;;;;;7.18;3.10;;;5.30;99.90;;;5.38;64.62;100264.97;4998809;28;20044;-77
2023/03/17 04:03:13;;;;;;;5.80;3.40;;;5.30;99.90;;;5.47;63.85;100262.97;4991944;28;20034;-77
2023/03/17 04:05:39;;;;;;;6.43;2.97;;;5.30;99.90;;;5.53;62.56;100245.13;4999927;28;20038;-76
2023/03/17 04:08:05;;;;;;;5.07;2.92;;;5.50;99.90;;;5.56;62.79;100240.16;5001901;28;20038;-76
2023/03/17 04:10:32;;;;;;;6.38;3.25;;;5.60;99.90;;;5.61;62.04;100221.50;5000200;28;20036;-77
2023/03/17 04:12:57;;;;;;;6.40;3.00;;;5.60;99.90;;;5.63;62.53;100217.75;5010068;28;20048;-81
2023/03/17 04:15:24;;;;;;;6.18;3.17;;;5.60;99.90;;;5.55;62.93;100200.59;5006573;28;20045;-80
2023/03/17 04:17:49;;;;;;;6.35;2.90;;;5.60;99.90;;;5.61;62.85;100201.69;4996779;28;20041;-77
2023/03/17 04:20:16;;;;;;;6.63;3.00;;;5.60;99.90;;;5.56;62.84;100207.69;4998582;28;20050;-78
2023/03/17 04:22:43;;;;;;;7.50;3.08;;;5.60;99.90;;;5.61;62.96;100207.97;4992227;28;20041;-78
2023/03/17 04:25:13;;;;;;;5.30;3.30;;;5.60;99.90;;;5.58;63.63;100197.53;4999279;28;20046;-77
2023/03/17 04:27:39;;;;;;;6.03;3.38;;;5.50;99.90;;;5.40;64.58;100213.38;5002808;28;20056;-77
2023/03/17 04:30:05;;;;;;;6.68;3.30;;;5.30;99.90;;;5.25;65.67;100216.97;5002467;28;20026;-77
2023/03/17 04:32:31;;;;;;;5.28;2.80;;;5.10;99.90;;;5.21;65.61;100220.28;4997257;28;20433;-78
2023/03/17 04:34:57;;;;;;;6.45;3.08;;;5.00;99.90;;;5.11;65.76;100221.41;5007722;28;20037;-78
2023/03/17 04:37:24;;;;;;;5.32;2.97;;;4.90;99.90;;;5.15;65.64;100217.28;5012047;28;20123;-77
2023/03/17 04:39:51;;;;;;;7.30;3.13;;;4.80;99.90;;;4.99;66.56;100207.53;5005715;28;20038;-77
2023/03/17 04:42:17;;;;;;;5.60;3.30;;;4.60;99.90;;;4.81;66.85;100212.53;5006052;28;20116;-78
2023/03/17 04:44:42;;;;;;;5.90;3.10;;;4.30;99.90;;;4.58;67.47;100221.63;5007448;28;20038;-78
2023/03/17 04:47:08;;;;;;;7.55;3.30;;;4.10;99.90;;;4.58;67.99;100227.84;5000612;28;20049;-77
2023/03/17 04:49:34;;;;;;;6.22;3.30;;;4.10;99.90;;;4.66;66.60;100218.81;5010114;28;20052;-78
2023/03/17 04:52:00;;;;;;;6.05;3.67;;;4.20;99.90;;;4.71;66.35;100212.84;5021374;28;20371;-77
2023/03/17 04:54:26;;;;;;;6.93;3.60;;;4.30;99.90;;;4.80;65.90;100217.09;5010074;28;20042;-77
2023/03/17 04:56:52;;;;;;;6.10;3.30;;;4.50;99.90;;;4.90;65.71;100209.50;5005414;28;20103;-78
2023/03/17 04:59:18;;;;;;;6.13;3.10;;;4.70;99.90;;;5.14;64.56;100212.91;5004538;28;20455;-78
2023/03/17 05:01:43;;;;;;;8.52;3.30;;;4.90;99.90;;;5.18;64.52;100216.91;5007748;28;20060;-78
2023/03/17 05:04:09;;;;;;;7.60;3.45;;;5.00;99.90;;;5.29;64.28;100214.72;5002141;28;20088;-78
2023/03/17 05:06:36;;;;;;;7.13;3.53;;;5.10;99.90;;;5.27;65.12;100214.91;4999318;28;20050;-78
2023/03/17 05:09:02;;;;;;;5.60;3.10;;;5.00;99.90;;;5.11;65.52;100212.47;5009674;28;20054;-79
2023/03/17 05:11:28;;;;;;;7.43;3.17;;;4.80;99.90;;;4.90;66.22;100211.41;5001168;28;20045;-78
2023/03/17 05:13:55;;;;;;;6.72;3.47;;;4.60;99.90;;;4.78;67.16;100208.34;4998739;28;20042;-77
2023/03/17 05:16:22;;;;;;;5.85;3.30;;;4.40;99.90;;;4.59;67.78;100207.91;5007107;28;20130;-78
2023/03/17 05:18:48;;;;;;;8.15;3.35;;;4.20;99.90;;;4.33;70.07;100227.31;5004530;28;20069;-79
2023/03/17 05:21:14;;;;;;;7.47;3.33;;;4.10;99.90;;;4.32;69.53;100212.94;5002557;28;20046;-78
2023/03/17 05:23:40;;;;;;;10.77;3.78;;;4.00;99.90;;;4.25;70.78;100216.59;4994929;28;20109;-78
2023/03/17 05:26:06;;;;;;;7.93;3.95;;;4.00;99.90;;;4.31;71.01;100226.66;5014628;28;20039;-78
2023/03/17 05:28:36;;;;;;;7.00;3.38;;;3.90;99.90;;;4.37;70.29;100217.78;5006340;28;20126;-78
2023/03/17 05:31:07;;;;;;;8.02;3.88;;;4.00;99.90;;;4.30;70.50;100222.28;4998454;28;20132;-78
2023/03/17 05:33:33;;;;;;;7.50;3.38;;;4.10;99.90;;;4.35;69.94;100219.84;5003719;28;20490;-78
2023/03/17 05:35:59;;;;;;;9.85;3.50;;;4.20;99.90;;;4.32;71.00;100220.22;5007380;28;20030;-78
2023/03/17 05:38:25;;;;;;;9.25;3.42;;;4.20;99.90;;;4.19;71.12;100191.16;5006239;28;20512;-78
2023/03/17 05:40:51;;;;;;;8.43;3.20;;;4.10;99.90;;;4.23;71.66;100188.91;5006338;28;20112;-78
2023/03/17 05:43:17;;;;;;;5.93;3.40;;;4.10;99.90;;;4.35;71.28;100181.19;5001217;28;20065;-78
2023/03/17 05:45:44;;;;;;;6.80;3.58;;;4.30;99.90;;;4.54;70.03;100199.53;5006732;28;20424;-78
2023/03/17 05:48:11;;;;;;;7.80;3.45;;;4.40;99.90;;;4.80;68.20;100194.66;4999385;28;20035;-77
2023/03/17 05:50:38;;;;;;;7.32;2.97;;;4.70;99.90;;;4.92;66.93;100192.28;4999753;28;20038;-76
2023/03/17 05:53:05;;;;;;;6.03;3.25;;;4.80;99.90;;;4.96;66.85;100180.88;4996819;28;20184;-78
2023/03/17 05:55:30;;;;;;;7.28;3.20;;;4.90;99.90;;;4.88;67.26;100195.34;5006849;28;20034;-78
2023/03/17 05:57:56;;;;;;;6.45;3.13;;;4.90;99.90;;;4.98;66.91;100200.47;5006103;28;20552;-79
2023/03/17 06:00:23;;;;;;;6.38;3.67;;;4.80;99.90;;;5.08;66.70;100196.63;4996514;28;20897;-79
2023/03/17 06:02:49;;;;;;;6.38;3.10;;;4.90;99.90;;;4.99;66.46;100193.19;5013677;28;20100;-79
2023/03/17 06:05:15;;;;;;;6.00;2.83;;;4.80;99.90;;;4.89;67.46;100188.09;4992308;28;20073;-78
2023/03/17 06:07:41;;;;;;;6.70;3.00;;;4.80;99.90;;;4.97;66.76;100170.94;5004777;28;20088;-78
2023/03/17 06:10:08;;;;;;;6.03;3.10;;;4.90;99.90;;;5.15;65.91;100174.00;5004388;28;20042;-79
2023/03/17 06:12:34;;;;;;;9.90;3.17;;;5.10;99.90;;;5.12;65.66;100181.69;5008380;28;20310;-78
2023/03/17 06:15:00;;;;;;;9.13;3.92;;;5.10;99.90;;;4.86;67.83;100181.19;5003455;28;20037;-79
2023/03/17 06:17:25;;;;;;;7.97;3.65;;;5.00;99.90;;;4.59;69.46;100180.88;5013550;28;20058;-78
2023/03/17 06:19:51;;;;;;;12.68;3.70;;;4.80;99.90;;;4.61;71.19;100196.91;5005051;28;20088;-79
2023/03/17 06:22:17;;;;;;;9.02;3.88;;;4.60;99.90;;;4.53;72.05;100202.44;5000481;28;20510;-78
2023/03/17 06:24:43;;;;;;;5.72;3.42;;;4.50;99.90;;;4.47;72.81;100214.81;5004293;28;20022;-78
2023/03/17 06:27:09;;;;;;;7.85;3.50;;;4.40;99.90;;;4.41;73.25;100215.56;4996009;28;20081;-76
2023/03/17 06:29:36;;;;;;;8.05;3.30;;;4.40;99.90;;;4.40;72.63;100209.31;4997744;28;20041;-77
2023/03/17 06:32:03;;;;;;;6.45;3.75;;;4.30;99.90;;;4.43;73.21;100208.94;5001885;28;20043;-77
2023/03/17 06:34:29;;;;;;;6.43;3.60;;;4.40;99.90;;;4.51;73.62;100207.16;4999366;28;20034;-77
2023/03/17 06:36:55;;;;;;;6.75;3.47;;;4.40;99.90;;;4.67;72.20;100193.44;4998802;28;20042;-77
2023/03/17 06:39:22;;;;;;;8.90;3.60;;;4.50;99.90;;;4.92;70.29;100193.13;5002412;28;20042;-78
2023/03/17 06:41:47;;;;;;;8.15;3.60;;;4.80;99.90;;;5.14;68.47;100183.16;4998383;28;20574;-77
2023/03/17 06:44:13;;;;;;;7.57;3.40;;;5.00;99.90;;;5.39;68.35;100180.06;5000693;28;20132;-77
2023/03/17 06:46:40;;;;;;;7.47;3.45;;;5.30;99.90;;;5.58;67.17;100184.00;5000710;28;20104;-77
2023/03/17 06:49:06;;;;;;;9.13;3.72;;;5.40;99.90;;;5.71;66.40;100177.84;4991334;28;20120;-76
2023/03/17 06:51:34;;;;;;;6.70;3.63;;;5.50;99.90;;;5.85;66.09;100188.78;5007899;28;20485;-77
2023/03/17 06:54:00;;;;;;;7.63;3.70;;;5.70;99.90;;;6.00;64.80;100191.38;4991317;28;20120;-76
2023/03/17 06:56:25;;;;;;;7.03;3.47;;;5.80;99.90;;;6.07;63.84;100189.56;4991221;28;20050;-77
2023/03/17 06:58:51;;;;;;;9.80;3.75;;;5.90;99.90;;;6.27;63.58;100192.44;5000272;28;20087;-77
2023/03/17 07:01:17;;;;;;;8.23;3.20;;;6.10;99.90;;;6.42;61.06;100188.72;5004269;28;20099;-76
2023/03/17 07:03:44;;;;;;;5.47;3.10;;;6.30;99.90;;;6.71;60.31;100192.19;5015385;28;20042;-77
2023/03/17 07:06:10;;;;;;;5.95;3.13;;;6.50;99.90;;;6.94;59.09;100185.59;5001842;28;20057;-77
2023/03/17 07:08:36;;;;;;;6.30;2.90;;;6.70;99.90;;;7.07;57.86;100168.53;5003342;28;20038;-77
2023/03/17 07:11:03;;;;;;;6.65;2.88;;;6.90;99.90;;;7.31;57.32;100169.84;4997833;28;20057;-78
2023/03/17 07:13:34;;;;;;;8.43;3.63;;;7.10;99.90;;;7.50;57.02;100170.91;4996759;28;20045;-78
2023/03/17 07:16:03;;;;;;;8.10;3.40;;;7.30;99.90;;;7.75;56.74;100171.09;5000908;28;20502;-77
2023/03/17 07:18:31;;;;;;;7.13;3.10;;;7.50;99.90;;;7.94;55.51;100151.44;4999251;28;20513;-77
2023/03/17 07:20:57;;;;;;;6.13;2.97;;;7.70;99.90;;;8.17;56.15;100156.41;5001910;28;20140;-76
2023/03/17 07:23:23;;;;;;;5.93;3.10;;;8.00;99.90;;;8.31;55.21;100168.06;4998257;28;20073;-76
2023/03/17 07:25:50;;;;;;;7.25;3.17;;;8.10;99.90;;;8.38;54.67;100152.56;5005832;28;20074;-77
2023/03/17 07:28:17;;;;;;;8.77;3.35;;;8.20;99.90;;;8.38;54.96;100158.00;4996446;28;20082;-76
2023/03/17 07:30:45;;;;;;;6.43;2.97;;;8.30;99.90;;;8.41;55.53;100154.03;5001196;28;20038;-77
2023/03/17 07:33:16;;;;;;;7.47;3.10;;;8.40;99.90;;;8.49;54.62;100153.78;5005111;28;20192;-77
2023/03/17 07:35:43;;;;;;;6.35;2.83;;;8.40;99.90;;;8.57;54.72;100141.88;5020020;28;20086;-75
2023/03/17 07:38:10;;;;;;;6.90;3.15;;;8.50;99.90;;;8.84;54.55;100155.34;5000948;28;20038;-76
2023/03/17 07:40:37;;;;;;;5.68;2.90;;;8.70;99.90;;;8.99;53.90;100153.16;5009683;28;20044;-76
2023/03/17 07:43:04;;;;;;;5.68;2.70;;;8.90;99.90;;;8.91;52.87;100147.97;4999570;28;20042;-77
2023/03/17 07:45:30;;;;;;;5.35;2.78;;;8.90;98.70;;;8.88;52.49;100132.09;5009373;28;20045;-78
2023/03/17 07:47:56;;;;;;;7.40;2.67;;;9.00;97.90;;;9.10;51.66;100142.63;5006807;28;20041;-77
2023/03/17 07:50:25;;;;;;;5.85;2.70;;;9.10;97.70;;;9.31;52.40;100145.00;5001540;28;20544;-77
2023/03/17 07:52:51;;;;;;;6.53;2.88;;;9.20;98.50;;;9.44;51.72;100124.16;5002706;28;20048;-78
2023/03/17 07:55:16;;;;;;;5.72;3.00;;;9.30;97.70;;;9.66;51.01;100134.66;4998962;28;20404;-78
2023/03/17 07:57:42;;;;;;;5.03;2.55;;;9.60;97.10;;;9.91;50.04;100132.75;5000624;28;20046;-78
2023/03/17 08:00:09;;;;;;;5.28;2.53;;;9.70;96.50;;;10.08;49.48;100133.00;4998038;28;20034;-77
2023/03/17 08:02:38;;;;;;;5.25;2.72;;;9.90;96.00;;;10.10;49.38;100127.31;5009830;28;20034;-77
2023/03/17 08:05:06;;;;;;;7.55;2.65;;;10.10;95.70;;;9.99;49.68;100122.59;4998804;28;20491;-78
2023/03/17 08:07:33;;;;;;;;;;;10.10;95.40;;;10.12;50.90;100127.09;4999736;28;20033;-78
2023/03/17 08:09:59;;;;;;;4.60;2.40;;;10.10;96.20;;;9.91;50.56;100130.03;5008887;28;20016;-78
2023/03/17 08:12:25;;;;;;;5.88;2.88;;;10.10;96.10;;;9.89;52.16;100134.88;5005918;28;20037;-78
2023/03/17 08:14:51;;;;;;;5.93;2.70;;;10.00;96.90;;;9.92;51.38;100133.56;5004458;28;20069;-79
2023/03/17 08:17:17;;;;;;;4.82;2.47;;;10.00;96.60;;;10.00;51.07;100119.66;4999522;28;20034;-78
2023/03/17 08:19:43;;;;;;;4.93;2.45;;;10.00;96.10;;;10.06;50.65;100101.56;4998658;28;20045;-78
2023/03/17 08:22:09;;;;;;;7.28;2.50;;;10.10;95.80;;;10.19;51.34;100119.66;5006278;28;20036;-78
2023/03/17 08:24:36;;;;;;;6.07;2.47;;;10.20;96.50;;;10.34;51.27;100127.44;5002122;28;20062;-77
2023/03/17 08:27:02;;;;;;;4.32;2.40;;;10.30;96.50;;;10.48;50.89;100126.28;5016093;28;20509;-78
2023/03/17 08:29:29;;;;;;;4.93;2.40;;;10.50;96.30;;;10.72;50.73;100133.72;5001526;28;20030;-78
2023/03/17 08:31:56;;;;;;;5.20;2.33;;;10.70;96.00;;;10.65;49.07;100126.47;5004823;28;20041;-77
2023/03/17 08:34:23;;;;;;;5.90;3.00;;;10.70;94.50;;;10.81;49.48;100131.50;5016998;28;20096;-78
2023/03/17 08:36:50;;;;;;;5.75;2.50;;;10.80;95.00;;;11.03;49.44;100131.84;4998043;28;20114;-78
2023/03/17 08:39:16;;;;;;;5.03;2.25;;;11.00;95.20;;;11.28;48.07;100112.56;5011501;28;20030;-78
2023/03/17 08:41:42;;;;;;;5.85;2.30;;;11.20;93.90;;;11.44;47.32;100099.28;5006616;28;20045;-79
2023/03/17 08:44:09;;;;;;;5.57;2.50;;;11.40;93.40;;;11.60;45.07;100086.81;4995906;28;20040;-79
2023/03/17 08:46:36;;;;;;;4.25;2.22;;;11.70;91.60;;;11.84;44.35;100087.63;4996743;28;20038;-78
2023/03/17 08:49:02;;;;;;;5.65;2.30;;;11.80;90.90;;;11.84;43.76;100067.69;5005608;28;20077;-78
2023/03/17 08:51:33;;;;;;;4.97;2.17;;;11.90;90.20;;;12.03;43.75;100090.28;5004700;28;20029;-79
2023/03/17 08:53:59;;;;;;;5.65;2.15;;;12.00;90.00;;;12.34;44.41;100088.16;5005559;28;20053;-79
2023/03/17 08:56:26;;;;;;;4.72;2.08;;;12.20;90.50;;;12.39;44.33;100079.25;5004179;28;20053;-78
2023/03/17 08:58:52;;;;;;;4.13;2.15;;;12.40;90.30;;;12.39;42.95;100082.81;5006447;28;20458;-79
2023/03/17 09:01:20;;;;;;;4.30;2.20;;;12.40;87.90;;;12.57;44.69;100097.38;5011503;28;20351;-78
2023/03/17 09:03:46;;;;;;;4.47;2.33;;;12.50;90.40;;;12.36;41.73;100064.16;5003600;28;20045;-79
2023/03/17 09:06:12;;;;;;;4.15;2.03;;;12.50;84.80;;;12.22;42.71;100066.31;5008244;28;20042;-78
2023/03/17 09:08:46;;;;;;;3.88;1.92;;;12.40;86.30;;;12.48;43.60;100086.00;5004640;28;20048;-79
2023/03/17 09:11:19;;;;;;;5.38;2.30;;;12.50;87.80;;;12.65;44.35;100092.34;5001090;28;20173;-78
2023/03/17 09:13:46;;;;;;;4.65;2.05;;;12.60;89.30;;;12.74;45.09;100101.00;5011896;28;20034;-78
2023/03/17 09:16:16;;;;;;;4.68;2.00;;;12.70;90.30;;;12.91;46.40;100105.69;5010419;28;20520;-78
2023/03/17 09:18:43;;;;;;;3.63;1.70;;;12.80;91.20;;;13.16;44.16;100082.56;5002721;28;20482;-78
2023/03/17 09:21:12;;;;;;;4.07;1.97;;;13.10;89.40;;;13.18;44.32;100084.00;5003609;28;20482;-78
2023/03/17 09:23:39;;;;;;;3.38;1.77;;;13.20;89.50;;;13.40;44.56;100107.06;5005538;28;20030;-76
2023/03/17 09:26:05;;;;;;;3.78;2.10;;;13.30;89.80;;;13.34;43.83;100092.44;4998416;28;20034;-77
2023/03/17 09:28:33;;;;;;;5.60;2.05;;;13.30;88.30;;;13.29;43.94;100084.16;5000579;28;20489;-77
2023/03/17 09:31:10;;;;;;;6.15;2.20;;;13.30;88.20;;;13.91;44.57;100098.81;5006414;28;20061;-79
2023/03/17 09:33:37;;;;;;;4.00;1.95;;;13.60;90.50;;;14.03;41.36;100072.13;5011899;28;20049;-77
2023/03/17 09:36:12;;;;;;;3.45;1.90;;;14.00;84.60;;;14.02;42.25;100078.69;5002076;28;20072;-78
2023/03/17 09:38:38;;;;;;;3.17;1.80;;;14.00;85.50;;;13.74;40.73;100063.22;5008854;28;20033;-78
2023/03/17 09:41:55;;;;;;;4.28;1.70;;;14.00;81.80;;;13.58;41.33;100065.75;5005105;28;20049;-79
2023/03/17 09:44:37;;;;;;;3.85;1.73;;;13.70;82.90;;;13.95;44.14;100095.31;5020973;28;20034;-78
2023/03/17 09:47:27;;;;;;;3.63;1.77;;;13.80;88.50;;;13.95;40.97;100058.84;5011510;28;20033;-78
2023/03/17 09:50:00;;;;;;;3.42;1.67;;;14.00;83.60;;;13.81;40.97;100052.91;5001023;28;20448;-76
2023/03/17 09:52:30;;;;;;;3.95;1.90;;;14.00;82.20;;;13.90;42.89;100080.69;5017586;28;20389;-79
2023/03/17 09:55:04;;;;;;;3.35;1.70;;;13.90;85.60;;;13.99;40.53;100073.72;5004376;28;20030;-78
2023/03/17 09:57:35;;;;;;;3.28;1.80;;;14.00;81.90;;;14.08;40.25;100065.88;5007980;28;20038;-78
2023/03/17 10:00:21;;;;;;;5.45;1.80;;;14.30;80.70;;;14.00;40.19;100066.31;5001587;28;20470;-78
2023/03/17 10:02:47;;;;;;;4.45;1.70;;;14.20;80.20;;;14.03;40.45;100066.63;5005558;28;20498;-79
2023/03/17 10:05:23;;;;;;;3.05;1.75;;;14.50;79.90;;;14.13;40.63;100079.66;5004642;28;20749;-81
2023/03/17 10:08:13;;;;;;;3.78;1.80;;;14.60;79.60;;;14.75;41.89;100083.13;5006193;28;20079;-79
2023/03/17 10:10:50;;;;;;;4.53;1.88;;;15.00;82.70;;;14.24;40.21;100070.47;5000278;28;20100;-79
2023/03/17 10:13:26;;;;;;;4.03;1.75;;;15.10;77.50;;;14.45;41.03;100087.16;5002565;28;20037;-78
2023/03/17 10:16:10;;;;;;;3.65;1.73;;;14.90;81.40;;;15.23;41.89;100088.00;4998405;28;20474;-78
2023/03/17 10:18:51;;;;;;;4.15;1.67;;;15.50;81.30;;;15.35;38.79;100063.88;5000407;28;20437;-78
2023/03/17 10:21:25;;;;;;;3.72;1.90;;;15.80;75.90;;;15.95;39.09;100071.19;5003274;28;20055;-78
2023/03/17 10:23:53;;;;;;;4.30;2.20;;;16.30;76.80;;;15.96;37.16;100046.16;5002134;28;20041;-77
2023/03/17 10:26:42;;;;;;;4.45;1.80;;;16.40;73.70;;;16.59;37.66;100061.00;5020355;28;20030;-78
2023/03/17 10:29:16;;;;;;;2.95;1.73;;;16.70;75.00;;;16.37;35.58;100052.94;5008065;28;20045;-78